Latest Weather Observations for Lochington

IDQ60801

Issued at 11:02 pm EST Sunday 1 February 2015 (issued every 30 minutes, with the page automatically refreshed every 10 minutes)

About weather observations | Map of weather stations | Latest weather observations for QLD | Other Formats
Station Details ID: 035139 Name: LOCHINGTON Lat: -23.94 Lon: 147.53 Height: 267.19 m
Data from the previous 72 hours. | See also: Recent months at Lochington
Date/Time
EST
Temp
°C
App
Temp
°C
Dew
Point
Rel
Hum
%
Delta-T
°C
Wind Press
QNH
hPa
Press
MSL
hPa
Rain
since 9 am
mm
Dir
 
Spd
km/h
Gust
km/h
Spd
kts
Gust
kts
01/11:00pm 23.1 26.4 21.4 90 1.1 WNW 6 7 3 4 1006.8 1005.0 1.6
01/10:30pm 23.7 27.8 21.6 88 1.4 WNW 2 6 1 3 1006.6 1004.8 1.6
01/10:00pm 23.7 28.2 21.6 88 1.4 CALM 0 4 0 2 1006.6 1004.8 1.6
01/09:30pm 24.1 27.6 21.8 87 1.5 SE 6 7 3 4 1006.4 1004.6 1.6
01/09:00pm 24.8 29.2 22.1 85 1.8 W 2 4 1 2 1006.1 1004.3 1.6
01/08:30pm 25.0 28.3 21.5 81 2.3 NW 6 7 3 4 1005.7 1003.9 1.6
01/08:00pm 25.2 28.5 21.5 80 2.5 NNE 6 9 3 5 1005.4 1003.6 1.6
01/07:30pm 25.4 28.4 20.9 76 3.0 ESE 6 7 3 4 1005.0 1003.2 1.6
01/07:00pm 26.0 28.5 20.3 71 3.8 E 7 11 4 6 1005.0 1003.2 1.6
01/06:30pm 26.9 29.1 20.3 67 4.4 ESE 9 15 5 8 1004.7 1002.9 1.6
01/06:00pm 27.5 29.5 20.8 67 4.5 ESE 11 19 6 10 1004.6 1002.8 1.6
01/05:30pm 27.9 30.8 21.7 69 4.2 E 9 13 5 7 1004.4 1002.5 1.6
01/05:00pm 26.9 30.1 21.6 72 3.6 NNE 7 13 4 7 1004.7 1002.9 1.6
01/04:30pm 25.0 25.1 19.1 70 3.8 SSW 17 26 9 14 1005.2 1003.4 1.0
01/04:00pm 29.0 28.2 17.2 49 7.5 SSW 17 35 9 19 1004.8 1003.0 0.2
01/03:30pm 33.6 34.4 17.3 37 10.5 NW 9 15 5 8 1004.0 1002.2 0.2
01/03:00pm 35.0 35.4 17.2 34 11.6 WNW 11 20 6 11 1004.4 1002.5 0.2
01/02:30pm 34.8 35.1 18.0 37 11.0 NW 13 20 7 11 1004.8 1003.0 0.2
01/02:00pm 33.8 35.6 18.7 40 10.0 W 7 13 4 7 1005.3 1003.5 0.2
01/01:30pm 33.8 35.3 19.8 43 9.4 WNW 11 17 6 9 1005.8 1004.0 0.2
01/01:00pm 33.8 36.3 19.8 43 9.4 WNW 6 15 3 8 1006.1 1004.3 0.2
01/12:30pm 32.8 35.2 19.7 46 8.7 NNW 6 13 3 7 1006.6 1004.8 0.2
01/12:00pm 31.8 34.4 20.1 50 7.8 WSW 6 9 3 5 1007.0 1005.2 0.2
01/11:30am 31.6 34.6 20.8 52 7.3 WSW 6 13 3 7 1007.4 1005.6 0.2
01/11:00am 30.5 33.3 20.4 54 6.8 SSW 6 13 3 7 1007.8 1006.1 0.2
01/10:30am 29.9 33.1 21.3 60 5.8 WSW 6 11 3 6 1008.2 1006.5 0.2
01/10:00am 29.3 33.3 21.3 62 5.4 W 2 7 1 4 1008.5 1006.7 0.2
01/09:30am 28.2 31.8 20.5 63 5.1 SW 2 4 1 2 1008.5 1006.6 0.2
01/09:00am 27.1 30.4 20.7 68 4.3 WNW 4 6 2 3 1008.5 1006.6 13.4
01/08:30am 26.0 29.6 20.6 72 3.6 S 2 6 1 3 1008.2 1006.4 13.4
01/08:00am 25.9 30.0 20.7 73 3.5 CALM 0 2 0 1 1008.4 1006.5 13.4
01/07:30am 24.8 28.9 20.7 78 2.7 CALM 0 0 0 0 1008.2 1006.4 13.4
01/07:00am 23.0 26.9 20.3 85 1.8 CALM 0 0 0 0 1008.2 1006.4 13.4
01/06:30am 21.5 24.9 20.1 92 0.9 W 2 4 1 2 1008.0 1006.2 13.4
01/06:00am 20.6 23.8 19.8 95 0.5 WNW 2 4 1 2 1007.5 1005.7 13.4
01/05:30am 20.9 24.6 19.9 94 0.6 CALM 0 0 0 0 1007.1 1005.3 13.4
01/05:00am 21.0 23.7 20.2 95 0.5 NNW 6 13 3 7 1007.0 1005.2 13.4
01/04:30am 20.8 24.5 20.0 95 0.5 CALM 0 0 0 0 1006.6 1004.7 13.4
01/04:00am 21.0 24.2 19.8 93 0.8 SE 2 2 1 1 1006.6 1004.7 13.4
01/03:30am 21.0 24.6 19.7 92 0.8 CALM 0 6 0 3 1006.7 1004.8 13.4
01/03:00am 21.4 24.4 20.0 92 0.9 WNW 4 6 2 3 1006.5 1004.6 13.4
01/02:30am 21.6 25.0 20.2 92 0.9 NW 2 4 1 2 1006.4 1004.5 13.4
01/02:00am 21.8 24.5 20.6 93 0.8 WNW 7 9 4 5 1006.5 1004.6 13.4
01/01:30am 22.3 25.7 20.9 92 0.9 WSW 4 6 2 3 1006.8 1004.9 13.4
01/01:00am 22.5 25.9 20.2 87 1.5 SSE 2 6 1 3 1006.9 1005.1 13.4
01/12:30am 22.8 25.4 20.0 84 1.8 E 6 6 3 3 1007.2 1005.4 13.4
01/12:00am 23.0 25.7 20.3 85 1.8 E 6 7 3 4 1007.5 1005.7 13.4
 
Date/Time
EST
Temp
°C
App
Temp
°C
Dew
Point
Rel
Hum
%
Delta-T
°C
Wind Press
QNH
hPa
Press
MSL
hPa
Rain
since 9 am
mm
Dir
 
Spd
km/h
Gust
km/h
Spd
kts
Gust
kts
31/11:30pm 23.0 26.8 21.6 92 0.9 ESE 4 6 2 3 1007.7 1005.9 13.4
31/11:00pm 23.7 28.0 21.2 86 1.7 CALM 0 0 0 0 1007.7 1005.9 13.4
31/10:30pm 24.1 28.2 21.6 86 1.7 SSE 2 4 1 2 1007.9 1006.1 13.4
31/10:00pm 24.5 28.5 21.4 83 2.1 S 2 6 1 3 1007.9 1006.1 13.4
31/09:30pm 24.5 27.8 21.4 83 2.1 S 6 9 3 5 1007.7 1005.9 13.4
31/09:00pm 24.5 27.8 21.8 85 1.8 NW 7 9 4 5 1007.3 1005.5 13.4
31/08:30pm 24.2 27.7 21.1 83 2.1 WNW 4 7 2 4 1007.2 1005.4 13.4
31/08:00pm 25.2 28.4 19.8 72 3.5 WNW 2 6 1 3 1006.7 1004.8 13.4
31/07:30pm 25.4 27.5 20.2 73 3.4 NNE 9 11 5 6 1006.3 1004.4 13.4
31/07:00pm 25.0 28.1 20.3 75 3.1 ENE 4 7 2 4 1006.2 1004.3 13.4
31/06:30pm 26.1 29.1 20.9 73 3.5 NNW 6 11 3 6 1006.1 1004.2 13.4
31/06:00pm 27.1 30.4 20.7 68 4.3 ESE 4 6 2 3 1005.6 1003.7 13.4
31/05:30pm 25.7 28.2 19.8 70 3.9 E 6 9 3 5 1005.4 1003.5 13.4
31/05:00pm 24.9 24.2 18.6 68 4.1 NNE 20 28 11 15 1005.3 1003.4 13.4
31/04:30pm 22.4 23.2 19.9 86 1.6 SE 15 44 8 24 1006.0 1004.1 12.6
31/04:22pm 20.6 15.5 17.8 84 1.7 SSW 41 87 22 47 1007.2 1005.4 7.6
31/04:16pm 23.4 20.6 16.4 64 4.3 S 26 87 14 47 1005.6 1003.7 0.4
31/04:15pm 26.2 25.1 17.8 60 5.3 S 20 82 11 44 1005.2 1003.3 0.0
31/04:00pm 32.2 34.7 19.1 45 8.7 E 4 6 2 3 1004.9 1003.0 0.0
31/03:30pm 33.1 35.2 18.1 41 9.8 ESE 4 7 2 4 1005.3 1003.4 0.0
31/03:00pm 33.7 35.1 17.8 38 10.4 WNW 7 15 4 8 1005.2 1003.3 0.0
31/02:30pm 34.0 35.9 18.5 40 10.2 W 6 13 3 7 1005.8 1003.9 0.0
31/02:00pm 33.0 35.0 18.7 42 9.4 NNE 6 11 3 6 1006.3 1004.4 0.0
31/01:30pm 32.9 36.0 21.1 50 8.0 N 6 15 3 8 1007.0 1005.2 0.0
31/01:00pm 32.3 35.0 19.5 46 8.5 W 4 13 2 7 1007.5 1005.7 0.0
31/12:30pm 32.0 34.2 19.3 47 8.4 W 6 11 3 6 1008.1 1006.3 0.0
31/12:00pm 31.0 32.0 18.7 48 8.1 NW 11 20 6 11 1008.4 1006.5 0.0
31/11:30am 30.7 32.6 19.7 52 7.3 N 9 17 5 9 1008.8 1006.9 0.0
31/11:00am 30.5 32.4 18.9 50 7.6 NNW 7 13 4 7 1009.2 1007.3 0.0
31/10:30am 29.2 30.6 18.6 52 6.9 N 9 13 5 7 1009.6 1007.7 0.0
31/10:00am 29.5 32.3 20.4 58 6.1 NW 6 7 3 4 1009.7 1007.8 0.0
31/09:30am 28.0 31.1 19.5 60 5.6 NW 2 6 1 3 1009.8 1007.9 0.0
31/09:00am 27.2 29.9 20.3 66 4.6 WSW 6 9 3 5 1010.0 1008.1 0.0
31/08:30am 27.0 31.3 21.1 70 3.9 CALM 0 4 0 2 1009.9 1008.0 0.0
31/08:00am 25.4 28.6 20.6 75 3.2 ENE 4 6 2 3 1009.7 1007.8 0.0
31/07:30am 24.4 27.3 19.9 76 2.9 NE 4 6 2 3 1009.7 1007.8 0.0
31/07:00am 23.2 26.8 19.8 81 2.2 CALM 0 0 0 0 1009.7 1007.8 0.0
31/06:30am 22.3 25.3 20.0 87 1.5 ESE 4 6 2 3 1009.3 1007.4 0.0
31/06:00am 20.9 24.0 19.4 91 1.0 WNW 2 6 1 3 1009.1 1007.2 0.0
31/05:30am 21.0 23.3 19.5 91 1.0 E 6 7 3 4 1008.8 1006.9 0.0
31/05:00am 21.2 23.0 19.5 90 1.1 ENE 9 11 5 6 1008.4 1006.5 0.0
31/04:30am 21.4 22.8 19.5 89 1.2 ENE 11 13 6 7 1007.9 1006.1 0.0
31/04:00am 21.2 23.2 19.1 88 1.3 E 7 9 4 5 1007.9 1006.1 0.0
31/03:30am 21.2 22.7 18.8 86 1.5 ENE 9 13 5 7 1007.6 1005.8 0.0
31/03:00am 21.7 23.6 18.5 82 2.0 ENE 6 11 3 6 1007.5 1005.7 0.0
31/02:30am 22.1 23.8 18.5 80 2.3 ENE 7 11 4 6 1007.3 1005.5 0.0
31/02:00am 22.6 24.4 18.4 77 2.7 ENE 6 9 3 5 1007.4 1005.6 0.0
31/01:30am 23.2 25.0 18.3 74 3.1 ENE 6 9 3 5 1007.3 1005.5 0.0
31/01:00am 23.6 25.2 18.3 72 3.4 NE 7 9 4 5 1007.2 1005.4 0.0
31/12:30am 23.8 25.6 18.4 72 3.4 NE 6 7 3 4 1007.3 1005.5 0.0
31/12:00am 23.5 25.3 18.8 75 3.0 ENE 7 9 4 5 1007.4 1005.6 0.0
 
Date/Time
EST
Temp
°C
App
Temp
°C
Dew
Point
Rel
Hum
%
Delta-T
°C
Wind Press
QNH
hPa
Press
MSL
hPa
Rain
since 9 am
mm
Dir
 
Spd
km/h
Gust
km/h
Spd
kts
Gust
kts
30/11:30pm 23.8 25.8 18.7 73 3.3 ENE 6 7 3 4 1007.8 1006.0 0.0
30/11:00pm 24.4 26.4 18.8 71 3.6 NE 6 7 3 4 1007.9 1006.1 0.0
30/10:30pm 24.7 26.4 18.6 69 3.9 NE 7 9 4 5 1008.0 1006.2 0.0
30/10:00pm 25.5 27.3 18.7 66 4.4 NE 7 9 4 5 1008.0 1006.2 0.0
30/09:30pm 25.8 27.5 18.5 64 4.7 NE 7 9 4 5 1007.6 1005.8 0.0
30/09:00pm 25.8 27.8 19.2 67 4.3 NNE 7 9 4 5 1007.4 1005.6 0.0
30/08:30pm 26.4 27.9 18.8 63 4.9 NE 9 11 5 6 1007.2 1005.4 0.0
30/08:00pm 27.2 28.5 18.5 59 5.6 NE 9 11 5 6 1007.0 1005.2 0.0
30/07:30pm 27.8 29.4 18.2 56 6.2 NE 7 11 4 6 1006.8 1004.9 0.0
30/07:00pm 28.5 30.1 18.3 54 6.6 NE 7 7 4 4 1006.5 1004.6 0.0
30/06:30pm 30.0 31.7 17.1 46 8.2 NE 4 6 2 3 1006.3 1004.4 0.0
30/06:00pm 30.8 31.3 15.6 39 9.5 NE 7 11 4 6 1006.1 1004.2 0.0
30/05:30pm 32.0 33.4 15.5 37 10.3 SW 2 2 1 1 1006.0 1004.1 0.0
30/05:00pm 31.5 32.2 14.6 36 10.5 ESE 4 6 2 3 1005.9 1004.0 0.0
30/04:30pm 31.3 31.6 14.9 37 10.2 E 7 15 4 8 1005.9 1004.0 0.0
30/04:00pm 31.2 31.8 15.2 38 10.0 SSE 6 7 3 4 1006.0 1004.1 0.0
30/03:30pm 31.2 31.8 15.2 38 10.0 E 6 9 3 5 1006.3 1004.4 0.0
30/03:00pm 31.5 32.3 15.9 39 9.8 SE 6 9 3 5 1006.7 1004.8 0.0
30/02:30pm 31.6 32.7 15.5 37 10.1 WSW 4 6 2 3 1007.1 1005.3 0.0
30/02:00pm 31.2 32.7 17.5 44 8.8 SW 6 11 3 6 1007.3 1005.5 0.0
30/01:30pm 30.0 31.2 16.8 45 8.4 ENE 6 11 3 6 1007.9 1006.1 0.0
30/01:00pm 29.6 30.9 17.1 47 8.0 E 6 9 3 5 1008.4 1006.5 0.0
30/12:30pm 30.5 32.1 17.9 47 8.1 ENE 6 11 3 6 1008.7 1006.8 0.0
30/12:00pm 29.3 30.4 18.1 51 7.2 ENE 9 13 5 7 1009.0 1007.1 0.0
30/11:30am 29.6 31.7 19.0 53 6.9 NE 6 13 3 7 1009.5 1007.6 0.0
30/11:00am 28.5 30.8 19.4 57 6.0 NE 6 13 3 7 1010.0 1008.1 0.0
30/10:30am 27.2 30.4 20.5 67 4.4 NE 4 7 2 4 1010.1 1008.2 0.0
30/10:00am 26.4 29.0 20.0 68 4.2 ENE 6 9 3 5 1010.1 1008.2 0.0
30/09:30am 25.4 27.9 20.2 73 3.4 NNE 7 9 4 5 1010.1 1008.2 0.0
30/09:00am 24.9 27.0 20.2 75 3.1 NNE 9 13 5 7 1010.1 1008.2 0.0
30/08:30am 23.8 26.2 20.1 80 2.4 NNE 7 13 4 7 1010.3 1008.5 0.0
30/08:00am 23.2 25.7 20.3 84 1.9 E 7 11 4 6 1010.0 1008.1 0.0
30/07:30am 23.5 26.2 20.6 84 1.9 ESE 7 11 4 6 1009.7 1007.8 0.0
30/07:00am 22.7 25.3 20.0 85 1.8 ESE 6 9 3 5 1009.6 1007.7 0.0
30/06:30am 21.9 25.3 20.2 90 1.1 ESE 2 4 1 2 1009.3 1007.4 0.0
30/06:00am 20.7 23.8 19.5 93 0.8 ESE 2 4 1 2 1009.1 1007.2 0.0
30/05:30am 20.6 24.0 19.4 93 0.8 CALM 0 0 0 0 1008.7 1006.8 0.0
30/05:00am 20.6 23.7 19.4 93 0.8 ESE 2 4 1 2 1008.4 1006.5 0.0
30/04:30am 20.8 23.2 19.6 93 0.8 E 6 6 3 3 1008.1 1006.3 0.0
30/04:00am 21.1 23.9 19.7 92 0.9 E 4 6 2 3 1008.1 1006.3 0.0
30/03:30am 21.7 24.8 20.2 91 1.0 ENE 4 6 2 3 1008.0 1006.2 0.0
30/03:00am 21.8 24.9 20.3 91 1.0 ENE 4 6 2 3 1007.9 1006.1 0.0
30/02:30am 22.0 25.4 20.1 89 1.2 NE 2 4 1 2 1008.0 1006.2 0.0
30/02:00am 22.1 26.0 20.4 90 1.1 CALM 0 0 0 0 1008.4 1006.5 0.0
30/01:30am 22.5 26.3 20.2 87 1.5 CALM 0 2 0 1 1008.6 1006.7 0.0
30/01:00am 22.7 26.8 20.8 89 1.3 CALM 0 2 0 1 1008.7 1006.8 0.0
30/12:30am 22.6 26.7 20.7 89 1.2 CALM 0 2 0 1 1008.8 1006.9 0.0
30/12:00am 22.8 26.9 20.7 88 1.4 CALM 0 0 0 0 1009.1 1007.2 0.0
 
Date/Time
EST
Temp
°C
App
Temp
°C
Dew
Point
Rel
Hum
%
Delta-T
°C
Wind Press
QNH
hPa
Press
MSL
hPa
Rain
since 9 am
mm
Dir
 
Spd
km/h
Gust
km/h
Spd
kts
Gust
kts
29/11:30pm 23.1 26.3 20.6 86 1.6 NE 4 6 2 3 1009.1 1007.2 0.0

Other Formats:

Comma delimited format used in spreadsheet applications
http://www.bom.gov.au/fwo/IDQ60801/IDQ60801.94399.axf

JavaScript Object Notation format (JSON) in row-major order
http://www.bom.gov.au/fwo/IDQ60801/IDQ60801.94399.json